Time;durP1;ratioP1;P1;durP2;ratioP2;P2;SDS_P1;SDS_P2;PMS_P1;PMS_P2;Temp;Humidity;BMP_temperature;BMP_pressure;BME280_temperature;BME280_humidity;BME280_pressure;Samples;Min_cycle;Max_cycle;Signal;HPM_P1;HPM_P2
2022/12/31 00:01:28;;;;;;;3.03;0.98;;;13.00;99.10;;;11.96;79.20;99432.84;5047292;28;20048;-72
2022/12/31 00:03:56;;;;;;;2.60;1.20;;;13.00;99.10;;;11.98;79.07;99436.88;5041618;28;20049;-72
2022/12/31 00:06:28;;;;;;;4.05;1.38;;;13.00;99.20;;;11.97;78.93;99443.28;5051859;28;20046;-72
2022/12/31 00:08:57;;;;;;;4.07;1.20;;;13.00;99.00;;;11.99;78.90;99440.34;5037551;28;20049;-72
2022/12/31 00:11:28;;;;;;;4.05;1.20;;;13.00;98.90;;;12.00;79.06;99441.94;5046390;28;20088;-72
2022/12/31 00:13:55;;;;;;;2.60;1.13;;;13.00;99.30;;;12.02;79.31;99442.53;5046952;28;20049;-72
2022/12/31 00:16:25;;;;;;;2.08;0.98;;;13.00;99.30;;;12.03;79.03;99444.94;5047007;28;20051;-72
2022/12/31 00:18:58;;;;;;;2.50;1.10;;;13.00;99.20;;;12.03;79.17;99439.59;5035559;28;20053;-72
2022/12/31 00:21:25;;;;;;;2.75;1.10;;;13.20;99.30;;;12.04;79.24;99443.09;5048375;28;20086;-72
2022/12/31 00:23:53;;;;;;;3.33;1.20;;;13.10;99.30;;;12.05;79.46;99437.50;5050523;28;20049;-72
2022/12/31 00:26:23;;;;;;;2.78;1.02;;;13.10;99.70;;;12.06;79.29;99435.66;5049756;28;20380;-72
2022/12/31 00:28:53;;;;;;;1.90;0.93;;;13.10;99.70;;;12.07;79.39;99426.56;5045051;28;20049;-72
2022/12/31 00:31:24;;;;;;;2.25;0.80;;;13.00;99.50;;;12.07;79.25;99426.56;5044995;28;20041;-72
2022/12/31 00:33:52;;;;;;;2.60;1.08;;;13.00;99.50;;;12.07;79.14;99426.56;5049164;28;20040;-72
2022/12/31 00:36:22;;;;;;;1.95;0.80;;;13.00;99.30;;;12.05;79.16;99432.16;5048654;28;20036;-72
2022/12/31 00:38:52;;;;;;;1.88;0.73;;;13.10;99.40;;;12.05;79.18;99432.16;5042224;28;20045;-72
2022/12/31 00:41:20;;;;;;;1.80;0.70;;;13.10;99.50;;;12.06;79.21;99422.28;5050295;28;20406;-72
2022/12/31 00:43:48;;;;;;;3.10;0.70;;;13.10;99.60;;;12.07;79.15;99429.25;5048839;28;20055;-72
2022/12/31 00:46:17;;;;;;;3.75;0.80;;;13.10;99.30;;;12.05;79.09;99428.66;5047837;28;20043;-72
2022/12/31 00:48:44;;;;;;;1.67;0.77;;;13.10;99.10;;;12.05;79.13;99432.16;5044988;28;20040;-72
2022/12/31 00:51:16;;;;;;;2.45;1.05;;;13.10;99.10;;;12.05;78.83;99429.50;5049304;28;20041;-72
2022/12/31 00:53:45;;;;;;;3.33;0.80;;;13.10;99.10;;;12.07;79.13;99429.25;5049978;28;20108;-72
2022/12/31 00:56:17;;;;;;;3.30;1.00;;;13.10;99.30;;;12.07;79.00;99416.69;5048111;28;20445;-72
2022/12/31 00:58:44;;;;;;;3.83;1.02;;;13.10;99.30;;;12.08;79.09;99409.47;5044848;28;20047;-72
2022/12/31 01:01:21;;;;;;;2.63;1.10;;;13.10;99.30;;;12.09;79.46;99397.72;5047420;28;20056;-72
2022/12/31 01:03:52;;;;;;;4.15;1.30;;;13.20;99.50;;;12.09;79.19;99389.69;5041305;28;20055;-72
2022/12/31 01:06:20;;;;;;;3.97;1.33;;;13.40;99.40;;;12.08;79.04;99386.22;5049525;28;20450;-72
2022/12/31 01:08:49;;;;;;;3.42;1.80;;;13.10;99.40;;;12.07;79.29;99381.94;5047861;28;20040;-72
2022/12/31 01:11:21;;;;;;;5.07;2.00;;;13.10;99.30;;;12.07;79.13;99381.94;5046909;28;20041;-72
2022/12/31 01:13:50;;;;;;;5.13;1.83;;;13.10;99.10;;;12.08;79.07;99367.50;5057652;28;20156;-72
2022/12/31 01:16:19;;;;;;;3.20;1.70;;;13.10;99.20;;;12.08;78.98;99372.88;5040261;28;20045;-72
2022/12/31 01:18:46;;;;;;;4.32;1.80;;;13.10;99.10;;;12.10;79.12;99380.63;5046476;28;20048;-72
2022/12/31 01:21:15;;;;;;;5.28;2.00;;;13.10;99.20;;;12.09;78.97;99371.81;5049551;28;20045;-72
2022/12/31 01:23:43;;;;;;;4.32;1.60;;;13.10;99.10;;;12.08;78.76;99375.53;5050253;28;20064;-72
2022/12/31 01:26:14;;;;;;;2.58;1.30;;;13.10;98.70;;;12.07;78.79;99368.59;5046006;28;20403;-72
2022/12/31 01:28:42;;;;;;;4.75;1.80;;;13.10;98.90;;;12.08;78.79;99358.69;5048341;28;20551;-72
2022/12/31 01:31:12;;;;;;;3.45;1.02;;;13.10;98.70;;;12.09;78.79;99369.13;5050205;28;20037;-72
2022/12/31 01:33:40;;;;;;;4.60;1.10;;;13.10;98.90;;;12.10;78.65;99367.25;5052374;28;20127;-72
2022/12/31 01:36:11;;;;;;;2.80;1.10;;;13.10;98.70;;;12.11;78.68;99356.34;5049389;28;20063;-72
2022/12/31 01:38:40;;;;;;;3.88;1.30;;;13.10;98.70;;;12.10;78.84;99344.03;5042149;28;20049;-72
2022/12/31 01:41:07;;;;;;;2.70;1.10;;;13.10;98.90;;;12.14;78.83;99360.38;5049923;28;20134;-72
2022/12/31 01:43:46;;;;;;;2.38;1.00;;;13.10;99.10;;;12.16;79.00;99350.25;5031791;28;20061;-72
2022/12/31 01:46:20;;;;;;;3.55;1.15;;;13.20;99.30;;;12.18;78.71;99355.34;5030083;28;20056;-72
2022/12/31 01:48:51;;;;;;;2.50;1.02;;;13.20;99.00;;;12.18;78.96;99353.47;5042402;28;20045;-72
2022/12/31 01:51:19;;;;;;;3.22;0.90;;;13.20;99.10;;;12.21;78.91;99352.19;5044493;28;20040;-72
2022/12/31 01:53:48;;;;;;;2.55;0.85;;;13.20;99.30;;;12.22;78.99;99351.13;5047177;28;20053;-72
2022/12/31 01:56:16;;;;;;;2.17;1.05;;;13.20;99.20;;;12.22;78.94;99345.78;5048724;28;20124;-72
2022/12/31 01:58:49;;;;;;;2.42;1.00;;;13.20;99.20;;;12.25;79.09;99346.09;5043803;28;20051;-72
2022/12/31 02:01:24;;;;;;;3.58;1.10;;;13.20;99.20;;;12.25;78.86;99345.25;5033529;28;20042;-72
2022/12/31 02:03:52;;;;;;;3.45;0.90;;;13.30;99.40;;;12.27;79.06;99356.53;5041543;28;20218;-72
2022/12/31 02:06:24;;;;;;;3.63;0.98;;;13.30;99.30;;;12.28;79.08;99358.13;5048827;28;20052;-72
2022/12/31 02:08:53;;;;;;;2.90;0.98;;;13.30;99.30;;;12.26;79.09;99369.09;5046465;28;20347;-72
2022/12/31 02:11:27;;;;;;;2.00;0.73;;;13.30;99.30;;;12.30;79.19;99364.06;5048832;28;20510;-72
2022/12/31 02:13:59;;;;;;;2.22;0.88;;;13.30;99.70;;;12.32;79.21;99372.63;5044379;28;20409;-72
2022/12/31 02:16:35;;;;;;;2.03;0.88;;;13.30;99.50;;;12.34;79.03;99378.50;5047894;28;20049;-72
2022/12/31 02:19:27;;;;;;;2.47;0.90;;;13.30;99.50;;;12.34;79.10;99370.50;5039503;28;20047;-72
2022/12/31 02:22:03;;;;;;;1.85;0.80;;;13.40;99.50;;;12.34;79.16;99363.28;5040012;28;20498;-73
2022/12/31 02:25:08;;;;;;;4.28;0.80;;;13.30;99.50;;;12.37;78.92;99353.97;5040425;28;20033;-72
2022/12/31 02:27:52;;;;;;;2.08;0.80;;;13.40;99.30;;;12.43;79.08;99338.78;5046690;28;20417;-72
2022/12/31 02:30:23;;;;;;;2.03;0.73;;;13.40;99.30;;;12.45;79.05;99344.69;5046222;28;20049;-73
2022/12/31 02:33:13;;;;;;;1.40;0.70;;;13.50;99.10;;;12.48;78.80;99349.53;5046309;28;20511;-72
2022/12/31 02:35:48;;;;;;;2.72;0.80;;;13.50;99.20;;;12.51;78.95;99341.00;5029681;28;20411;-72
2022/12/31 02:38:22;;;;;;;2.33;0.70;;;13.50;99.00;;;12.54;78.87;99351.19;5048092;28;20039;-72
2022/12/31 02:40:50;;;;;;;1.80;0.70;;;13.60;99.20;;;12.59;78.82;99345.91;5036842;28;20030;-72
2022/12/31 02:43:17;;;;;;;2.78;0.70;;;13.60;99.10;;;12.58;78.71;99354.97;5060300;23;20510;-85
2022/12/31 02:45:56;;;;;;;2.50;0.70;;;13.60;98.90;;;12.61;78.59;99349.13;5075566;28;20045;-85
2022/12/31 02:48:44;;;;;;;1.90;0.60;;;13.60;98.90;;;12.63;78.58;99363.06;5083311;28;20622;-83
2022/12/31 02:51:33;;;;;;;2.78;0.70;;;13.60;99.00;;;12.66;78.66;99359.09;5084447;28;20107;-83
2022/12/31 02:54:19;;;;;;;1.17;0.47;;;13.60;98.90;;;12.69;78.47;99351.38;5078174;28;20036;-83
2022/12/31 02:57:01;;;;;;;2.50;0.50;;;13.70;98.90;;;12.73;78.64;99357.00;5091261;28;20047;-84
2022/12/31 03:02:27;;;;;;;1.60;0.50;;;13.70;98.60;;;12.82;78.25;99356.28;5074978;28;20403;-83
2022/12/31 03:04:57;;;;;;;2.05;0.40;;;13.80;98.70;;;12.86;78.27;99365.44;5088131;28;20040;-83
2022/12/31 03:07:27;;;;;;;1.65;0.50;;;13.80;98.50;;;12.89;78.11;99374.84;5082780;28;20047;-83
2022/12/31 03:09:55;;;;;;;3.22;0.60;;;13.90;98.50;;;12.93;78.00;99377.78;5077809;28;20055;-83
2022/12/31 03:15:20;;;;;;;1.75;0.60;;;13.90;98.70;;;12.94;78.01;99384.78;5081605;28;20044;-83
2022/12/31 03:17:57;;;;;;;0.85;0.40;;;13.90;98.50;;;12.95;78.15;99391.75;5081157;28;20098;-83
2022/12/31 03:23:20;;;;;;;1.63;0.50;;;13.90;98.50;;;12.94;78.22;99385.59;5072499;28;20616;-83
2022/12/31 03:25:47;;;;;;;5.10;0.50;;;14.00;98.70;;;12.98;78.53;99393.91;5077138;28;20390;-83
2022/12/31 03:28:17;;;;;;;1.48;0.50;;;14.10;98.70;;;12.98;78.82;99380.53;5069421;28;20041;-83
2022/12/31 03:30:48;;;;;;;2.28;0.47;;;14.00;98.90;;;12.97;78.83;99378.91;5079385;28;20051;-83
2022/12/31 03:33:17;;;;;;;2.45;0.50;;;14.00;99.10;;;12.97;78.80;99393.09;5085453;28;20055;-83
2022/12/31 03:35:47;;;;;;;1.48;0.50;;;14.00;98.90;;;12.96;78.99;99390.69;5089335;28;20040;-83
2022/12/31 03:38:15;;;;;;;2.03;0.60;;;14.00;99.10;;;12.99;78.87;99387.50;5083932;28;20041;-83
2022/12/31 03:40:45;;;;;;;3.25;0.70;;;14.00;99.10;;;13.01;78.74;99377.34;5089881;28;20055;-83
2022/12/31 03:43:12;;;;;;;2.45;0.60;;;14.00;98.90;;;13.04;78.74;99395.59;5090520;28;20408;-84
2022/12/31 03:45:39;;;;;;;1.88;0.68;;;14.10;99.00;;;13.02;78.51;99378.97;5085834;28;20044;-83
2022/12/31 03:48:09;;;;;;;2.35;0.60;;;14.00;98.70;;;13.05;78.40;99386.50;5084984;28;20047;-83
2022/12/31 03:50:37;;;;;;;1.27;0.50;;;14.10;98.60;;;13.07;78.37;99387.03;5084123;28;20475;-83
2022/12/31 03:53:05;;;;;;;1.30;0.50;;;14.10;98.70;;;13.13;78.27;99396.75;5088515;28;20051;-83
2022/12/31 03:55:32;;;;;;;1.15;0.50;;;14.10;98.60;;;13.18;77.96;99398.66;5082946;28;20044;-83
2022/12/31 03:58:00;;;;;;;1.38;0.40;;;14.20;98.30;;;13.21;77.80;99396.25;5088703;28;20083;-83
2022/12/31 04:00:28;;;;;;;1.33;0.57;;;14.30;98.00;;;13.24;77.75;99397.66;5087596;28;20062;-83
2022/12/31 04:02:55;;;;;;;2.80;0.60;;;14.20;97.90;;;13.24;77.54;99395.00;5084325;28;20055;-83
2022/12/31 04:05:23;;;;;;;1.80;0.60;;;14.30;97.90;;;13.24;77.53;99401.16;5077343;28;20036;-83
2022/12/31 04:07:52;;;;;;;1.60;0.55;;;14.30;97.80;;;13.27;77.35;99400.63;5085613;28;20051;-83
2022/12/31 04:10:20;;;;;;;1.73;0.70;;;14.30;97.80;;;13.31;77.46;99409.75;5084627;28;20440;-83
2022/12/31 04:12:47;;;;;;;2.97;0.70;;;14.30;97.60;;;13.34;77.48;99397.75;5078121;28;20456;-83
2022/12/31 04:15:19;;;;;;;1.65;0.52;;;14.30;97.60;;;13.38;77.28;99377.44;5082885;28;20044;-83
2022/12/31 04:17:46;;;;;;;2.30;0.60;;;14.30;97.50;;;13.45;76.88;99395.94;5077183;28;20519;-83
2022/12/31 04:20:14;;;;;;;4.30;0.70;;;14.40;97.20;;;13.45;76.75;99385.25;5088185;28;20040;-83
2022/12/31 04:22:41;;;;;;;2.78;0.60;;;14.40;97.00;;;13.44;77.02;99383.63;5077320;28;20033;-83
2022/12/31 04:25:10;;;;;;;3.33;0.70;;;14.40;97.00;;;13.45;77.12;99404.00;5086785;28;20047;-83
2022/12/31 04:27:40;;;;;;;2.58;0.60;;;14.40;97.00;;;13.41;76.79;99379.56;5080458;28;20574;-83
2022/12/31 04:30:10;;;;;;;5.43;0.73;;;14.50;97.00;;;13.42;76.99;99391.94;5089202;28;20127;-83
2022/12/31 04:32:38;;;;;;;1.15;0.60;;;14.40;96.90;;;13.43;76.96;99387.38;5086882;28;20163;-83
2022/12/31 04:35:06;;;;;;;1.83;0.70;;;14.40;97.00;;;13.45;76.79;99401.31;5080452;28;20052;-83
2022/12/31 04:37:33;;;;;;;1.77;0.60;;;14.40;96.90;;;13.47;76.90;99375.06;5080353;28;20497;-83
2022/12/31 04:40:01;;;;;;;3.03;0.80;;;14.50;96.80;;;13.47;76.73;99391.97;5079798;28;20051;-83
2022/12/31 04:42:29;;;;;;;1.98;0.70;;;14.50;96.60;;;13.53;76.52;99408.88;5080298;28;20064;-83
2022/12/31 04:44:56;;;;;;;3.70;0.80;;;14.50;96.50;;;13.51;76.12;99411.78;5089401;28;20044;-83
2022/12/31 04:47:24;;;;;;;1.67;0.50;;;14.50;96.40;;;13.53;76.12;99403.53;5087352;28;20118;-83
2022/12/31 04:49:51;;;;;;;1.95;0.55;;;14.50;96.30;;;13.54;75.96;99413.16;5077788;28;20041;-83
2022/12/31 04:52:18;;;;;;;2.90;0.60;;;14.50;96.20;;;13.57;76.04;99410.00;5070720;28;20044;-83
2022/12/31 04:54:45;;;;;;;5.93;0.88;;;14.50;96.20;;;13.56;75.83;99411.03;5083050;28;20059;-83
2022/12/31 04:57:12;;;;;;;1.40;0.47;;;14.60;96.00;;;13.58;75.96;99406.25;5083845;28;20063;-83
2022/12/31 04:59:41;;;;;;;1.60;0.60;;;14.60;95.80;;;13.59;75.85;99419.38;5085931;28;20036;-83
2022/12/31 05:02:08;;;;;;;2.17;0.75;;;14.60;95.80;;;13.62;75.65;99412.69;5089461;28;20498;-83
2022/12/31 05:04:35;;;;;;;4.00;0.73;;;14.60;95.50;;;13.65;75.33;99410.28;5074575;28;20045;-83
2022/12/31 05:07:03;;;;;;;3.03;0.70;;;14.60;95.30;;;13.67;75.09;99420.78;5087278;28;20039;-83
2022/12/31 05:09:30;;;;;;;4.18;0.70;;;14.60;95.30;;;13.70;74.86;99422.91;5086143;28;20307;-83
2022/12/31 05:11:57;;;;;;;3.03;0.93;;;14.70;94.90;;;13.77;74.58;99407.44;5084227;28;20491;-83
2022/12/31 05:14:24;;;;;;;2.72;0.52;;;14.80;94.70;;;13.77;74.76;99407.44;5075331;28;20072;-83
2022/12/31 05:16:53;;;;;;;1.88;0.60;;;14.70;94.70;;;13.78;74.65;99406.38;5078875;28;20051;-84
2022/12/31 05:19:20;;;;;;;2.20;0.60;;;14.80;94.60;;;13.79;74.59;99386.53;5086098;28;20135;-83
2022/12/31 05:22:27;;;;;;;3.28;0.70;;;14.80;94.40;;;13.81;74.19;99381.75;5088807;28;20044;-82
2022/12/31 05:24:35;;;;;;;2.70;0.50;;;14.80;94.20;;;13.83;74.17;99411.75;5082699;28;20048;-82
2022/12/31 05:27:02;;;;;;;2.80;0.75;;;14.80;94.00;;;13.84;74.21;99394.63;5078531;28;20047;-83
2022/12/31 05:29:29;;;;;;;1.15;0.63;;;14.90;94.30;;;13.86;74.22;99423.84;5083926;28;20059;-83
2022/12/31 05:31:57;;;;;;;3.17;0.70;;;14.90;94.10;;;13.86;74.12;99411.25;5083593;28;20040;-85
2022/12/31 05:34:25;;;;;;;2.95;0.63;;;14.90;94.10;;;13.90;73.98;99419.56;5080686;28;20119;-85
2022/12/31 05:36:52;;;;;;;3.08;0.70;;;14.90;93.80;;;13.90;73.97;99436.44;5079327;28;20040;-85
2022/12/31 05:39:19;;;;;;;2.78;0.75;;;14.90;93.80;;;13.94;73.81;99425.22;5077310;28;20052;-85
2022/12/31 05:41:46;;;;;;;2.92;0.60;;;14.90;93.80;;;13.90;73.89;99417.69;5078739;28;20036;-84
2022/12/31 05:44:13;;;;;;;2.75;0.80;;;14.90;93.80;;;13.91;73.86;99419.31;5085634;28;20039;-84
2022/12/31 05:46:41;;;;;;;2.85;0.85;;;14.90;93.80;;;13.96;73.53;99441.84;5080431;28;20040;-84
2022/12/31 05:49:09;;;;;;;3.65;0.70;;;15.00;93.40;;;13.96;73.79;99442.69;5075259;28;20555;-85
2022/12/31 05:51:36;;;;;;;3.38;1.08;;;14.90;93.50;;;13.96;73.64;99440.00;5079953;28;20049;-85
2022/12/31 05:54:04;;;;;;;3.38;0.80;;;15.00;93.50;;;13.96;73.89;99444.53;5088477;28;20062;-85
2022/12/31 05:56:31;;;;;;;4.63;0.80;;;15.00;93.60;;;13.99;73.80;99439.47;5082980;28;20046;-84
2022/12/31 05:58:58;;;;;;;3.78;0.90;;;15.00;93.60;;;13.99;73.87;99438.66;5077767;28;20043;-83
2022/12/31 06:01:26;;;;;;;3.03;0.60;;;15.00;93.60;;;13.97;73.72;99455.00;5087854;28;20496;-85
2022/12/31 06:03:53;;;;;;;2.90;0.70;;;15.00;93.60;;;13.98;73.78;99451.25;5075517;28;20071;-84
2022/12/31 06:06:21;;;;;;;2.80;0.80;;;15.00;93.50;;;14.02;73.49;99459.59;5077952;28;20645;-84
2022/12/31 06:08:50;;;;;;;2.45;0.77;;;15.00;93.10;;;14.06;73.29;99458.81;5081492;28;20051;-84
2022/12/31 06:11:18;;;;;;;2.33;0.68;;;15.00;93.00;;;14.06;73.25;99468.75;5088087;28;20039;-85
2022/12/31 06:13:45;;;;;;;1.85;0.70;;;15.00;93.00;;;14.10;73.09;99469.81;5093009;28;20513;-85
2022/12/31 06:16:14;;;;;;;2.50;0.60;;;15.00;92.80;;;14.13;72.96;99463.94;5081538;28;20128;-85
2022/12/31 06:18:41;;;;;;;5.35;1.00;;;15.10;92.90;;;14.12;73.15;99473.88;5079498;28;20049;-84
2022/12/31 06:21:09;;;;;;;4.30;1.00;;;15.10;92.90;;;14.14;73.18;99490.50;5078552;28;20071;-84
2022/12/31 06:23:40;;;;;;;3.90;0.90;;;15.10;92.80;;;14.14;73.04;99492.38;5077949;28;20055;-83
2022/12/31 06:26:07;;;;;;;3.38;0.73;;;15.10;92.80;;;14.18;73.09;99498.84;5086030;28;20056;-85
2022/12/31 06:28:35;;;;;;;3.50;0.70;;;15.10;92.80;;;14.16;72.88;99504.47;5079287;28;20048;-87
2022/12/31 06:31:04;;;;;;;3.00;0.80;;;15.10;92.80;;;14.17;73.19;99495.34;5080488;28;20036;-87
2022/12/31 06:33:32;;;;;;;5.78;1.00;;;15.10;92.70;;;14.17;73.17;99510.63;5087392;28;20066;-87
2022/12/31 06:36:04;;;;;;;2.78;0.80;;;15.10;92.80;;;14.15;73.35;99512.75;5080858;28;20041;-87
2022/12/31 06:38:36;;;;;;;3.88;0.80;;;15.20;92.90;;;14.18;72.89;99510.38;5084194;28;20050;-87
2022/12/31 06:41:05;;;;;;;5.88;1.05;;;15.20;92.60;;;14.22;73.03;99513.34;5095057;28;20079;-87
2022/12/31 06:43:34;;;;;;;3.92;0.98;;;15.20;92.60;;;14.21;73.07;99521.66;5077562;28;20044;-87
2022/12/31 06:46:02;;;;;;;4.32;0.90;;;15.20;92.80;;;14.19;73.17;99521.91;5077550;28;20054;-87
2022/12/31 06:48:32;;;;;;;4.90;0.90;;;15.20;92.60;;;14.21;73.00;99521.66;5074084;28;20041;-87
2022/12/31 06:51:05;;;;;;;2.97;0.82;;;15.30;92.80;;;14.22;72.96;99521.41;5086980;28;20136;-87
2022/12/31 06:53:32;;;;;;;3.85;0.85;;;15.20;92.60;;;14.19;73.08;99521.91;5071694;28;20044;-87
2022/12/31 06:56:08;;;;;;;3.95;0.90;;;15.20;92.50;;;14.20;73.26;99528.91;5081635;28;20090;-87
2022/12/31 06:58:36;;;;;;;4.63;1.10;;;15.20;92.70;;;14.20;73.07;99528.91;5085450;28;20114;-88
2022/12/31 07:01:36;;;;;;;5.18;0.80;;;15.20;92.70;;;14.21;72.93;99533.19;5073773;28;20040;-87
2022/12/31 07:04:38;;;;;;;5.30;1.00;;;15.20;92.50;;;14.25;72.90;99534.31;5081715;28;20123;-87
2022/12/31 07:07:14;;;;;;;2.90;0.93;;;15.20;92.20;;;14.26;72.70;99540.47;5087993;28;20511;-86
2022/12/31 07:09:58;;;;;;;4.78;1.25;;;15.30;92.40;;;14.27;72.54;99540.19;5074957;28;20049;-87
2022/12/31 07:12:51;;;;;;;6.18;1.02;;;15.30;92.20;;;14.31;72.37;99522.53;5073227;28;20043;-87
2022/12/31 07:15:34;;;;;;;8.30;1.20;;;15.30;92.00;;;14.35;72.42;99544.28;5090238;28;20059;-87
2022/12/31 07:18:10;;;;;;;5.15;0.98;;;15.40;92.00;;;14.34;72.14;99554.19;5086725;28;20052;-87
2022/12/31 07:20:38;;;;;;;7.18;1.10;;;15.40;91.80;;;14.38;71.93;99549.94;5085145;28;20050;-87
2022/12/31 07:23:08;;;;;;;4.47;0.90;;;15.40;91.40;;;14.45;72.01;99543.53;5093199;28;20044;-88
2022/12/31 07:25:38;;;;;;;3.50;0.88;;;15.40;91.50;;;14.42;71.90;99553.72;5090009;28;20039;-86
2022/12/31 07:28:18;;;;;;;5.78;1.30;;;15.40;91.60;;;14.40;72.23;99547.81;5082371;28;20054;-87
2022/12/31 07:30:54;;;;;;;2.53;0.80;;;15.40;91.70;;;14.39;72.25;99546.16;5083537;28;20062;-86
2022/12/31 07:33:43;;;;;;;4.53;1.10;;;15.40;91.70;;;14.41;72.18;99562.84;5088082;28;20071;-88
2022/12/31 07:36:30;;;;;;;4.97;1.00;;;15.40;91.60;;;14.42;72.16;99561.75;5083452;28;20098;-91
2022/12/31 07:42:19;;;;;;;4.00;0.95;;;15.40;91.40;;;14.42;72.04;99556.38;5075361;28;20040;-95
2022/12/31 07:45:11;;;;;;;7.75;1.33;;;15.40;91.40;;;14.43;71.86;99547.28;5354435;22;20100;-94
2022/12/31 07:48:01;;;;;;;3.20;1.02;;;15.40;91.40;;;14.41;71.97;99546.72;5034655;28;20049;-94
2022/12/31 07:55:02;;;;;;;3.75;0.90;;;15.40;91.50;;;14.43;71.75;99568.72;4973228;28;20153;-93
2022/12/31 07:58:07;;;;;;;;;;;;;;;;;;;;;
2022/12/31 08:00:48;;;;;;;2.65;1.02;;;15.50;91.20;;;14.47;71.91;99568.22;4948467;29;20075;-93
2022/12/31 08:03:54;;;;;;;3.92;1.15;;;15.50;91.10;;;14.47;71.67;99565.53;4942995;28;20149;-94
2022/12/31 08:06:40;;;;;;;3.45;0.95;;;15.50;91.00;;;14.47;71.21;99568.22;4934835;28;20117;-89
2022/12/31 08:09:19;;;;;;;4.10;1.00;;;15.50;90.80;;;14.50;71.19;99587.34;4955084;28;20614;-89
2022/12/31 08:11:55;;;;;;;5.88;1.25;;;15.50;90.70;;;14.51;70.97;99583.59;4958255;28;20129;-93
2022/12/31 08:14:25;;;;;;;3.58;0.85;;;15.50;90.60;;;14.51;71.30;99590.81;4949986;28;20087;-91
2022/12/31 08:16:54;;;;;;;6.05;0.93;;;15.50;90.50;;;14.53;70.88;99573.38;4968819;28;20077;-85
2022/12/31 08:19:29;;;;;;;5.78;1.00;;;15.50;90.40;;;14.55;70.88;99578.50;5052730;28;20402;-90
2022/12/31 08:25:48;;;;;;;3.90;1.10;;;15.60;90.10;;;14.54;71.19;99584.94;5044623;28;20130;-84
2022/12/31 08:28:25;;;;;;;5.85;1.10;;;15.60;90.20;;;14.52;70.92;99592.44;5052652;28;20115;-91
2022/12/31 08:31:01;;;;;;;3.53;1.10;;;15.50;90.30;;;14.57;70.25;99593.28;5040680;28;20041;-84
2022/12/31 08:33:38;;;;;;;5.55;1.00;;;15.60;89.30;;;14.60;70.11;99600.00;5038783;28;20461;-83
2022/12/31 08:36:18;;;;;;;3.60;1.00;;;15.60;89.30;;;14.61;70.18;99605.13;5038099;28;20033;-88
2022/12/31 08:38:56;;;;;;;5.38;1.13;;;15.60;89.40;;;14.63;69.94;99594.91;5041622;28;20043;-86
2022/12/31 08:41:29;;;;;;;4.68;1.25;;;15.70;89.10;;;14.67;69.87;99611.31;5041925;28;20057;-86
2022/12/31 08:44:09;;;;;;;3.03;0.95;;;15.70;89.10;;;14.70;69.81;99615.38;5057953;23;20546;-76
2022/12/31 08:46:46;;;;;;;3.75;1.00;;;15.70;88.80;;;14.71;69.58;99609.72;5026041;28;20041;-77
2022/12/31 08:49:16;;;;;;;2.78;0.95;;;15.70;88.50;;;14.76;69.35;99620.50;5019937;28;20050;-76
2022/12/31 08:51:44;;;;;;;3.65;0.95;;;15.80;88.50;;;14.76;69.56;99611.63;5018178;28;20054;-76
2022/12/31 08:54:13;;;;;;;4.65;1.27;;;15.80;88.60;;;14.77;69.43;99602.50;5025238;28;20411;-76
2022/12/31 08:56:47;;;;;;;3.88;1.20;;;15.80;88.40;;;14.77;69.50;99614.06;5013597;28;20503;-76
2022/12/31 08:59:32;;;;;;;4.20;1.05;;;15.80;88.70;;;14.76;69.20;99615.13;5016223;28;20414;-75
2022/12/31 09:02:41;;;;;;;3.10;1.10;;;15.80;88.20;;;14.81;69.14;99622.41;5009898;28;20046;-75
2022/12/31 09:05:21;;;;;;;3.90;1.08;;;15.80;88.20;;;14.84;68.93;99632.63;5005489;28;20048;-75
2022/12/31 09:08:03;;;;;;;2.85;1.00;;;15.80;87.90;;;14.88;68.72;99617.59;5011527;28;20053;-75
2022/12/31 09:10:34;;;;;;;4.43;1.40;;;15.90;87.70;;;14.90;68.58;99615.47;5006958;28;20456;-75
2022/12/31 09:13:13;;;;;;;3.08;1.05;;;15.90;87.50;;;14.91;68.57;99631.31;5004860;28;20042;-75
2022/12/31 09:15:47;;;;;;;6.10;1.27;;;15.90;87.40;;;14.90;68.73;99637.75;5016706;28;20042;-75
2022/12/31 09:18:15;;;;;;;4.15;1.30;;;15.90;87.60;;;14.88;69.05;99628.34;5010946;28;20089;-75
2022/12/31 09:20:44;;;;;;;5.72;1.08;;;15.90;88.00;;;14.88;68.66;99641.75;5001367;28;20057;-75
2022/12/31 09:23:12;;;;;;;4.03;1.40;;;15.90;87.50;;;14.91;68.41;99642.06;5009317;28;20116;-76
2022/12/31 09:25:46;;;;;;;7.85;1.52;;;15.90;87.30;;;14.93;68.44;99658.72;5005835;28;20384;-75
2022/12/31 09:28:18;;;;;;;4.85;1.30;;;15.90;87.30;;;14.93;68.46;99668.63;5005732;28;20042;-76
2022/12/31 09:30:53;;;;;;;5.40;1.25;;;15.90;87.20;;;14.93;68.34;99674.84;5020187;28;20041;-76
2022/12/31 09:33:39;;;;;;;5.07;1.48;;;15.90;87.10;;;14.94;68.35;99683.72;5008910;28;20034;-76
2022/12/31 09:36:14;;;;;;;4.07;1.10;;;16.00;87.20;;;14.93;68.50;99701.69;5004584;28;20441;-76
2022/12/31 09:38:51;;;;;;;4.60;1.23;;;15.90;87.10;;;14.95;68.19;99709.47;5005804;28;20077;-76
2022/12/31 09:41:59;;;;;;;17.15;2.00;;;16.00;87.00;;;14.96;68.53;99711.09;5013999;28;20045;-76
2022/12/31 09:45:16;;;;;;;6.03;1.20;;;16.00;87.30;;;14.98;68.12;99718.88;5009017;28;20042;-76
2022/12/31 09:48:43;;;;;;;8.52;1.80;;;16.00;87.00;;;14.97;68.47;99739.56;5029585;28;20414;-75
2022/12/31 09:51:27;;;;;;;5.93;1.40;;;16.00;87.20;;;14.96;68.36;99723.72;5009138;28;20559;-76
2022/12/31 09:54:22;;;;;;;4.63;1.55;;;16.00;87.10;;;14.97;68.90;99739.56;5008545;28;20046;-76
2022/12/31 09:57:09;;;;;;;4.28;1.20;;;16.00;87.30;;;14.97;68.71;99730.69;5012475;28;20046;-76
2022/12/31 09:59:45;;;;;;;6.65;1.35;;;16.00;87.40;;;14.97;68.61;99738.75;5005800;28;20415;-76
2022/12/31 10:02:30;;;;;;;4.70;1.30;;;16.00;87.20;;;14.96;68.55;99750.56;5012080;28;20076;-76
2022/12/31 10:05:21;;;;;;;6.82;1.15;;;16.00;87.10;;;14.98;68.55;99753.78;5008027;28;20048;-75
2022/12/31 10:07:55;;;;;;;;;;;16.00;87.30;;;14.96;68.45;99734.47;5008248;28;20041;-75
2022/12/31 10:10:30;;;;;;;5.43;1.05;;;16.00;87.10;;;14.99;68.60;99742.00;5006818;28;19922;-76
2022/12/31 10:13:46;;;;;;;5.53;1.67;;;16.00;87.20;;;15.01;68.28;99748.72;5012423;28;20045;-75
2022/12/31 10:16:53;;;;;;;4.63;1.33;;;16.00;86.90;;;15.04;67.95;99740.16;5004776;28;20037;-75
2022/12/31 10:20:09;;;;;;;5.55;1.55;;;16.00;86.70;;;15.07;68.05;99761.09;5015987;28;20046;-76
2022/12/31 10:23:23;;;;;;;6.85;1.85;;;16.10;86.70;;;15.10;68.06;99755.22;5011510;28;20038;-77
2022/12/31 10:26:12;;;;;;;5.82;1.52;;;16.10;86.60;;;15.10;67.57;99747.19;4991556;28;20065;-77
2022/12/31 10:28:53;;;;;;;8.52;1.65;;;16.10;86.10;;;15.14;67.33;99759.03;5000266;28;20145;-76
2022/12/31 10:31:39;;;;;;;7.65;1.10;;;16.10;85.90;;;15.19;67.44;99769.81;5008322;28;20566;-76
2022/12/31 10:34:25;;;;;;;7.28;1.50;;;16.10;86.10;;;15.18;67.38;99749.38;4998865;28;20060;-76
2022/12/31 10:36:57;;;;;;;7.43;1.55;;;16.20;85.80;;;15.23;67.07;99763.91;5005879;28;20052;-76
2022/12/31 10:39:42;;;;;;;3.75;1.20;;;16.20;85.30;;;15.28;66.87;99766.63;5002780;28;20088;-75
2022/12/31 10:43:03;;;;;;;4.47;1.10;;;16.20;85.40;;;15.29;66.92;99763.69;5008013;28;20133;-75
2022/12/31 10:46:27;;;;;;;4.20;1.15;;;16.20;85.20;;;15.27;67.28;99765.81;5004641;28;20583;-75
2022/12/31 10:49:40;;;;;;;6.85;1.77;;;16.30;85.70;;;15.28;67.07;99772.00;4992293;28;20062;-75
2022/12/31 10:53:00;;;;;;;8.35;1.50;;;16.20;85.30;;;15.27;66.63;99765.81;5016732;28;20095;-75
2022/12/31 10:56:08;;;;;;;10.10;1.60;;;16.30;85.00;;;15.31;66.52;99764.22;5004282;28;20484;-75
2022/12/31 10:59:24;;;;;;;6.03;1.58;;;16.30;84.90;;;15.33;66.60;99762.09;5008132;28;20049;-75
2022/12/31 11:02:16;;;;;;;7.35;1.25;;;16.30;85.00;;;15.32;66.89;99756.97;5010109;28;20045;-75
2022/12/31 11:05:37;;;;;;;8.52;2.05;;;16.30;85.20;;;15.33;66.53;99753.25;5006353;28;20034;-75
2022/12/31 11:08:27;;;;;;;8.25;1.55;;;16.30;85.10;;;15.34;66.88;99752.16;4969985;28;20059;-82
2022/12/31 11:11:15;;;;;;;5.88;1.17;;;16.30;85.20;;;15.33;67.01;99748.66;5005353;28;20041;-75
2022/12/31 11:14:13;;;;;;;5.53;1.58;;;16.30;85.20;;;15.37;66.57;99728.28;5018863;28;20034;-75
2022/12/31 11:17:02;;;;;;;4.15;1.30;;;16.40;84.90;;;15.41;66.17;99745.47;4998549;28;20061;-75